Time;durP1;ratioP1;P1;durP2;ratioP2;P2;SDS_P1;SDS_P2;PMS_P1;PMS_P2;Temp;Humidity;BMP_temperature;BMP_pressure;BME280_temperature;BME280_humidity;BME280_pressure;Samples;Min_cycle;Max_cycle;Signal;HPM_P1;HPM_P2
2021/01/01 00:02:22;;;;;;;54.63;26.08;;;;;;;6.53;58.28;93361.31;5089179;28;20107;-68
2021/01/01 00:04:47;;;;;;;52.80;23.70;;;;;;;6.43;58.80;93357.06;5089067;28;20059;-68
2021/01/01 00:07:13;;;;;;;55.90;25.50;;;;;;;6.36;59.26;93358.56;5089171;28;20035;-68
2021/01/01 00:09:38;;;;;;;64.70;28.45;;;;;;;6.28;59.72;93367.19;5088942;28;20032;-67
2021/01/01 00:12:04;;;;;;;77.00;31.42;;;;;;;6.22;60.11;93369.94;5087778;28;20024;-68
2021/01/01 00:14:30;;;;;;;66.63;31.13;;;;;;;6.14;59.90;93375.16;5087839;28;20028;-68
2021/01/01 00:16:55;;;;;;;49.13;23.55;;;;;;;6.02;59.52;93365.06;5088886;28;20024;-67
2021/01/01 00:19:21;;;;;;;45.85;20.83;;;;;;;6.00;58.68;93370.69;5089297;28;20035;-68
2021/01/01 00:21:46;;;;;;;48.88;21.45;;;;;;;5.98;58.66;93377.31;5087595;28;20116;-68
2021/01/01 00:24:12;;;;;;;48.72;20.60;;;;;;;5.95;58.54;93380.59;5081564;28;20037;-68
2021/01/01 00:26:37;;;;;;;45.28;21.67;;;;;;;5.88;58.22;93372.22;5077271;28;20093;-68
2021/01/01 00:29:03;;;;;;;47.40;20.98;;;;;;;5.85;58.33;93373.59;5088685;28;20161;-68
2021/01/01 00:31:29;;;;;;;42.90;21.63;;;;;;;5.82;58.94;93374.97;5089030;28;20032;-69
2021/01/01 00:33:54;;;;;;;46.60;20.77;;;;;;;5.83;59.20;93378.41;5088861;28;20027;-69
2021/01/01 00:36:21;;;;;;;45.58;19.63;;;;;;;5.87;58.97;93381.25;5089007;28;20051;-68
2021/01/01 00:38:51;;;;;;;43.03;19.33;;;;;;;5.87;58.93;93391.81;5089005;28;20150;-69
2021/01/01 00:41:35;;;;;;;46.30;20.40;;;;;;;5.84;59.42;93390.53;5088212;28;20031;-69
2021/01/01 00:44:01;;;;;;;36.95;17.10;;;;;;;5.82;59.79;93388.19;5082859;28;20025;-67
2021/01/01 00:46:28;;;;;;;31.02;15.07;;;;;;;5.80;59.95;93387.72;5088743;28;20076;-68
2021/01/01 00:48:58;;;;;;;33.90;14.95;;;;;;;5.83;60.22;93394.25;5093055;28;20078;-74
2021/01/01 00:51:25;;;;;;;28.20;13.68;;;;;;;5.86;60.71;93392.88;5080942;28;20020;-73
2021/01/01 00:53:50;;;;;;;32.75;13.95;;;;;;;5.85;60.08;93401.91;5084145;28;20101;-73
2021/01/01 00:56:20;;;;;;;29.20;14.18;;;;;;;5.87;59.89;93397.88;5081522;28;20552;-74
2021/01/01 00:58:46;;;;;;;26.75;13.90;;;;;;;5.84;59.54;93398.47;5090095;28;20502;-73
2021/01/01 01:01:12;;;;;;;32.47;14.18;;;;;;;5.79;59.42;93409.94;5075751;28;20058;-73
2021/01/01 01:03:37;;;;;;;31.05;14.52;;;;;;;5.69;59.21;93402.19;5072040;28;20520;-73
2021/01/01 01:06:03;;;;;;;27.30;12.95;;;;;;;5.60;58.69;93398.66;5074374;28;20509;-73
2021/01/01 01:08:28;;;;;;;30.65;13.93;;;;;;;5.43;59.13;93407.94;5089389;28;20089;-73
2021/01/01 01:10:54;;;;;;;31.90;14.55;;;;;;;5.43;59.75;93415.88;5084008;28;20494;-73
2021/01/01 01:13:19;;;;;;;27.35;12.38;;;;;;;5.41;58.53;93406.66;5083111;28;20512;-73
2021/01/01 01:15:45;;;;;;;27.38;12.60;;;;;;;5.34;58.50;93408.91;5090168;28;20523;-73
2021/01/01 01:18:10;;;;;;;31.08;14.85;;;;;;;5.35;59.20;93413.91;5087452;28;20047;-73
2021/01/01 01:20:35;;;;;;;31.63;13.35;;;;;;;5.36;59.56;93412.81;5089719;28;20168;-73
2021/01/01 01:23:01;;;;;;;31.45;14.98;;;;;;;5.32;59.77;93417.13;5086016;28;20031;-73
2021/01/01 01:25:26;;;;;;;39.28;17.42;;;;;;;5.27;60.12;93419.06;5070611;28;20025;-73
2021/01/01 01:27:52;;;;;;;42.58;16.00;;;;;;;5.20;59.96;93419.44;5088530;28;20031;-73
2021/01/01 01:30:17;;;;;;;36.00;15.63;;;;;;;5.13;60.47;93413.72;5077306;28;20021;-72
2021/01/01 01:32:43;;;;;;;35.67;14.75;;;;;;;5.08;60.94;93421.75;5074269;28;20020;-72
2021/01/01 01:35:09;;;;;;;33.50;14.30;;;;;;;5.07;61.01;93413.06;5070276;28;20031;-72
2021/01/01 01:37:34;;;;;;;31.52;13.95;;;;;;;5.07;61.35;93414.88;5088202;28;20085;-72
2021/01/01 01:39:59;;;;;;;27.08;11.85;;;;;;;5.07;61.28;93420.16;5088539;28;20028;-72
2021/01/01 01:42:25;;;;;;;25.83;12.68;;;;;;;5.05;60.97;93417.84;5089009;28;20097;-72
2021/01/01 01:44:50;;;;;;;30.67;14.43;;;;;;;4.95;61.94;93418.78;5090260;28;20024;-72
2021/01/01 01:47:19;;;;;;;29.70;12.82;;;;;;;4.91;61.90;93433.63;5076186;28;20047;-72
2021/01/01 01:49:45;;;;;;;35.03;15.05;;;;;;;4.95;61.42;93424.06;5080106;28;20088;-72
2021/01/01 01:52:11;;;;;;;27.75;13.18;;;;;;;4.94;61.62;93432.25;5090532;28;20051;-72
2021/01/01 01:54:38;;;;;;;26.42;13.55;;;;;;;4.96;62.00;93425.63;5070831;28;20074;-73
2021/01/01 01:57:04;;;;;;;23.65;11.60;;;;;;;4.97;61.88;93427.19;5087804;28;20498;-73
2021/01/01 01:59:29;;;;;;;31.90;11.90;;;;;;;4.97;62.61;93431.69;5074082;28;20028;-73
2021/01/01 02:01:54;;;;;;;21.83;10.20;;;;;;;5.00;62.70;93431.88;5075329;28;20028;-74
2021/01/01 02:04:20;;;;;;;24.10;10.25;;;;;;;4.89;63.17;93440.28;5085298;28;20506;-73
2021/01/01 02:06:46;;;;;;;21.95;9.57;;;;;;;4.89;63.74;93440.28;5074777;28;20024;-73
2021/01/01 02:09:13;;;;;;;25.88;10.60;;;;;;;4.97;63.38;93432.47;5080332;28;20031;-74
2021/01/01 02:11:41;;;;;;;27.27;11.15;;;;;;;5.05;62.98;93433.69;5104916;28;20114;-74
2021/01/01 02:14:07;;;;;;;33.65;11.43;;;;;;;5.06;62.61;93442.38;5080380;28;20032;-74
2021/01/01 02:16:34;;;;;;;27.33;13.20;;;;;;;5.09;62.63;93439.97;5079000;28;20090;-74
2021/01/01 02:18:59;;;;;;;26.33;12.43;;;;;;;5.08;63.06;93433.09;5075636;28;20108;-73
2021/01/01 02:21:25;;;;;;;32.40;12.57;;;;;;;5.11;63.30;93443.09;5086002;28;20103;-73
2021/01/01 02:23:50;;;;;;;25.92;11.32;;;;;;;5.16;63.37;93439.59;5089383;28;20020;-73
2021/01/01 02:26:16;;;;;;;24.45;11.13;;;;;;;5.19;63.18;93445.09;5079580;28;20463;-74
2021/01/01 02:28:41;;;;;;;26.70;12.35;;;;;;;5.12;63.44;93443.88;5081418;28;20408;-74
2021/01/01 02:31:07;;;;;;;28.33;12.02;;;;;;;5.17;63.46;93447.22;5076931;28;20020;-74
2021/01/01 02:33:33;;;;;;;22.27;12.02;;;;;;;5.25;63.49;93445.78;5069682;28;20103;-73
2021/01/01 02:35:59;;;;;;;26.45;11.23;;;;;;;5.15;63.52;93448.56;5085635;28;20028;-72
2021/01/01 02:38:25;;;;;;;22.08;9.93;;;;;;;5.20;63.49;93459.06;5080919;28;20081;-71
2021/01/01 02:40:51;;;;;;;25.92;11.65;;;;;;;5.22;64.10;93459.56;5086765;28;20047;-72
2021/01/01 02:43:16;;;;;;;24.92;11.32;;;;;;;5.32;64.06;93469.19;5082703;28;20028;-72
2021/01/01 02:45:42;;;;;;;25.27;10.10;;;;;;;5.34;63.88;93461.75;5084144;28;20024;-71
2021/01/01 02:48:21;;;;;;;31.17;10.50;;;;;;;5.36;64.02;93455.09;5072729;28;20039;-72
2021/01/01 02:50:46;;;;;;;27.95;10.50;;;;;;;5.38;64.54;93452.97;5082692;28;20456;-71
2021/01/01 02:53:12;;;;;;;26.40;10.63;;;;;;;5.38;64.44;93466.16;5072475;28;20106;-71
2021/01/01 02:55:38;;;;;;;24.63;11.60;;;;;;;5.41;64.55;93462.97;5079667;28;20480;-72
2021/01/01 02:58:05;;;;;;;23.75;10.63;;;;;;;5.46;64.70;93469.25;5079370;28;20028;-72
2021/01/01 03:00:32;;;;;;;26.13;11.45;;;;;;;5.47;64.81;93476.09;5070715;28;20031;-72
2021/01/01 03:02:57;;;;;;;20.20;9.82;;;;;;;5.54;64.49;93472.00;5080783;28;20023;-72
2021/01/01 03:05:23;;;;;;;26.70;11.23;;;;;;;5.54;64.66;93466.72;5082981;28;20039;-72
2021/01/01 03:07:48;;;;;;;23.90;10.55;;;;;;;5.55;64.78;93472.78;5074358;28;20043;-71
2021/01/01 03:10:14;;;;;;;20.50;10.48;;;;;;;5.54;65.00;93465.94;5079425;28;20510;-72
2021/01/01 03:12:39;;;;;;;22.13;9.35;;;;;;;5.58;64.30;93459.75;5080295;28;20024;-72
2021/01/01 03:15:06;;;;;;;20.40;8.90;;;;;;;5.59;64.77;93457.91;5070779;28;20113;-72
2021/01/01 03:17:32;;;;;;;20.55;8.63;;;;;;;5.59;64.56;93463.97;5088229;28;20028;-72
2021/01/01 03:19:57;;;;;;;18.05;8.93;;;;;;;5.62;64.21;93470.56;5085731;28;20020;-72
2021/01/01 03:22:22;;;;;;;18.52;9.13;;;;;;;5.61;64.15;93474.25;5069033;28;20491;-72
2021/01/01 03:24:48;;;;;;;19.23;9.05;;;;;;;5.63;64.03;93469.47;5074998;28;20025;-72
2021/01/01 03:30:36;;;;;;;20.98;10.50;;;;;;;5.55;64.28;93465.63;5086299;28;20039;-72
2021/01/01 03:33:02;;;;;;;22.63;9.77;;;;;;;5.57;64.19;93471.41;5081390;28;20023;-72
2021/01/01 03:35:27;;;;;;;24.52;10.05;;;;;;;5.56;64.11;93479.63;5084853;28;20028;-73
2021/01/01 03:37:53;;;;;;;21.05;9.52;;;;;;;5.55;63.93;93473.53;5087685;28;20102;-72
2021/01/01 03:40:18;;;;;;;23.35;9.70;;;;;;;5.53;63.75;93464.34;5076797;28;20036;-73
2021/01/01 03:42:43;;;;;;;21.35;9.60;;;;;;;5.52;64.11;93474.16;5068855;28;20099;-73
2021/01/01 03:45:10;;;;;;;22.83;9.27;;;;;;;5.55;63.87;93467.47;5067448;28;20115;-73
2021/01/01 03:47:36;;;;;;;18.42;9.23;;;;;;;5.50;63.99;93465.72;5067470;28;20036;-73
2021/01/01 03:50:01;;;;;;;19.27;9.88;;;;;;;5.41;64.20;93457.69;5072960;28;20058;-74
2021/01/01 03:52:27;;;;;;;23.70;9.95;;;;;;;5.36;64.34;93468.31;5078205;28;20044;-74
2021/01/01 03:54:52;;;;;;;24.55;9.57;;;;;;;5.36;64.16;93465.69;5088927;28;20032;-74
2021/01/01 03:57:18;;;;;;;22.60;10.18;;;;;;;5.28;64.22;93461.06;5081794;28;20059;-75
2021/01/01 03:59:43;;;;;;;23.67;10.85;;;;;;;5.23;64.19;93471.69;5080918;28;20117;-75
2021/01/01 04:02:09;;;;;;;22.42;9.68;;;;;;;5.20;64.53;93467.00;5069556;28;20043;-75
2021/01/01 04:04:34;;;;;;;22.60;10.50;;;;;;;5.17;64.59;93472.84;5085238;28;20115;-75
2021/01/01 04:06:59;;;;;;;27.67;11.32;;;;;;;5.19;64.15;93475.97;5088814;28;20375;-75
2021/01/01 04:09:25;;;;;;;27.67;11.95;;;;;;;5.11;64.54;93484.56;5087125;28;20043;-75
2021/01/01 04:11:50;;;;;;;26.48;11.43;;;;;;;4.98;64.43;93486.84;5072984;28;20115;-75
2021/01/01 04:14:16;;;;;;;26.70;12.38;;;;;;;4.80;65.41;93491.09;5071596;28;20422;-74
2021/01/01 04:16:45;;;;;;;24.75;12.48;;;;;;;4.80;65.41;93498.22;5082101;28;20039;-74
2021/01/01 04:19:11;;;;;;;25.83;11.45;;;;;;;4.78;65.25;93503.81;5092407;28;20028;-74
2021/01/01 04:21:37;;;;;;;26.35;11.80;;;;;;;4.73;64.90;93495.16;5092149;28;20073;-74
2021/01/01 04:24:02;;;;;;;29.80;12.15;;;;;;;4.69;65.28;93512.63;5091996;28;20089;-74
2021/01/01 04:26:27;;;;;;;26.40;12.52;;;;;;;4.64;65.50;93502.94;5078995;28;20511;-74
2021/01/01 04:28:53;;;;;;;28.38;12.23;;;;;;;4.61;65.56;93509.53;5090941;28;20036;-74
2021/01/01 04:31:18;;;;;;;29.02;12.80;;;;;;;4.59;65.76;93519.59;5085302;28;20038;-74
2021/01/01 04:33:45;;;;;;;31.17;12.02;;;;;;;4.54;65.86;93514.41;5071994;28;20126;-74
2021/01/01 04:36:10;;;;;;;29.05;11.55;;;;;;;4.50;66.22;93517.88;5070786;28;20403;-74
2021/01/01 04:38:36;;;;;;;26.85;12.68;;;;;;;4.46;66.14;93507.13;5080795;28;20028;-72
2021/01/01 04:41:02;;;;;;;27.60;12.45;;;;;;;4.43;66.25;93510.31;5089818;28;20035;-72
2021/01/01 04:43:28;;;;;;;27.98;11.65;;;;;;;4.42;65.96;93511.38;5081974;28;20061;-75
2021/01/01 04:45:54;;;;;;;24.60;10.77;;;;;;;4.34;65.92;93509.38;5103694;28;20024;-75
2021/01/01 04:48:19;;;;;;;23.02;10.65;;;;;;;4.29;66.21;93506.78;5076844;28;20020;-75
2021/01/01 04:50:45;;;;;;;24.02;10.18;;;;;;;4.31;66.08;93507.28;5084892;28;20036;-76
2021/01/01 04:53:15;;;;;;;22.98;10.05;;;;;;;4.24;65.90;93510.28;5081923;28;20078;-76
2021/01/01 04:55:41;;;;;;;23.38;9.93;;;;;;;4.22;65.75;93502.63;5078976;28;20031;-73
2021/01/01 04:58:07;;;;;;;21.42;10.00;;;;;;;4.31;65.26;93512.56;5074705;28;20024;-73
2021/01/01 05:00:32;;;;;;;15.23;7.75;;;;;;;4.31;65.28;93517.84;5074726;28;20032;-73
2021/01/01 05:02:58;;;;;;;21.42;9.65;;;;;;;4.19;65.60;93513.75;5085993;28;20032;-73
2021/01/01 05:05:27;;;;;;;23.48;9.05;;;;;;;4.19;65.60;93515.59;5081740;28;20132;-73
2021/01/01 05:07:53;;;;;;;21.60;8.98;;;;;;;4.23;64.85;93527.16;5078540;28;20483;-73
2021/01/01 05:10:18;;;;;;;26.27;9.20;;;;;;;4.23;64.40;93529.78;5077995;28;20028;-72
2021/01/01 05:12:45;;;;;;;25.65;9.13;;;;;;;4.11;64.94;93543.41;5083151;28;20090;-72
2021/01/01 05:15:11;;;;;;;25.23;10.23;;;;;;;4.02;66.29;93548.47;5080973;28;20032;-72
2021/01/01 05:17:37;;;;;;;23.05;9.55;;;;;;;3.89;66.37;93553.59;5077618;28;20039;-72
2021/01/01 05:20:08;;;;;;;25.05;9.50;;;;;;;3.75;66.78;93551.63;5085138;28;20032;-72
2021/01/01 05:22:34;;;;;;;24.75;9.25;;;;;;;3.70;66.53;93554.31;5080515;28;20415;-72
2021/01/01 05:25:19;;;;;;;13.57;5.97;;;;;;;3.55;65.86;93547.31;5071368;28;20043;-72
2021/01/01 05:27:47;;;;;;;13.40;6.25;;;;;;;3.49;65.52;93550.28;5081461;28;20110;-72
2021/01/01 05:30:15;;;;;;;15.50;6.38;;;;;;;3.49;65.29;93552.91;5075537;28;20439;-72
2021/01/01 05:32:52;;;;;;;17.67;7.30;;;;;;;3.48;65.23;93548.69;5077199;28;20029;-72
2021/01/01 05:35:31;;;;;;;19.08;7.75;;;;;;;3.50;65.82;93549.22;5089079;28;20027;-71
2021/01/01 05:38:13;;;;;;;16.67;6.47;;;;;;;3.41;65.67;93559.56;5077956;28;20069;-71
2021/01/01 05:40:40;;;;;;;24.65;7.63;;;;;;;3.34;66.18;93565.16;5077027;28;20438;-71
2021/01/01 05:43:23;;;;;;;15.88;7.10;;;;;;;3.40;65.89;93568.53;5073076;28;20040;-70
2021/01/01 05:45:49;;;;;;;15.45;6.72;;;;;;;3.38;65.84;93573.28;5084082;28;20023;-70
2021/01/01 05:48:16;;;;;;;16.35;6.30;;;;;;;3.34;66.00;93574.91;5077308;28;20162;-70
2021/01/01 05:50:43;;;;;;;15.73;7.18;;;;;;;3.38;65.25;93579.34;5080873;28;20025;-70
2021/01/01 05:53:13;;;;;;;13.52;5.93;;;;;;;3.31;66.01;93570.94;5078608;28;20074;-70
2021/01/01 05:55:39;;;;;;;17.15;7.50;;;;;;;3.33;65.83;93583.84;5081558;28;20052;-70
2021/01/01 05:58:21;;;;;;;16.23;5.95;;;;;;;3.26;65.74;93591.25;5081953;28;20463;-70
2021/01/01 06:00:50;;;;;;;15.40;7.57;;;;;;;3.15;66.58;93595.81;5084575;28;20032;-70
2021/01/01 06:03:20;;;;;;;18.30;7.25;;;;;;;3.12;66.73;93594.53;5082032;28;20031;-70
2021/01/01 06:05:48;;;;;;;21.17;7.75;;;;;;;3.09;67.06;93594.28;5070515;28;20103;-71
2021/01/01 06:08:14;;;;;;;14.13;7.18;;;;;;;3.10;67.14;93599.28;5070169;28;20100;-72
2021/01/01 06:10:49;;;;;;;16.77;7.28;;;;;;;3.11;67.02;93608.72;5074410;28;20060;-72
2021/01/01 06:13:19;;;;;;;22.70;10.05;;;;;;;3.10;67.05;93598.50;5082796;28;20031;-72
2021/01/01 06:15:55;;;;;;;20.70;9.27;;;;;;;3.15;66.51;93616.88;5077181;28;20016;-72
2021/01/01 06:18:29;;;;;;;29.40;11.90;;;;;;;3.10;66.86;93609.81;5103821;28;20036;-72
2021/01/01 06:21:04;;;;;;;29.40;12.07;;;;;;;3.14;66.88;93620.59;5080152;28;20106;-71
2021/01/01 06:23:40;;;;;;;30.23;13.82;;;;;;;3.20;66.31;93616.88;5084201;28;20351;-71
2021/01/01 06:26:07;;;;;;;23.52;10.50;;;;;;;3.15;66.84;93614.25;5076752;28;20146;-73
2021/01/01 06:28:36;;;;;;;24.35;11.00;;;;;;;3.14;67.13;93618.75;5078387;28;20471;-72
2021/01/01 06:31:02;;;;;;;24.83;11.65;;;;;;;3.20;67.69;93624.78;5084099;28;20385;-72
2021/01/01 06:33:28;;;;;;;23.20;11.45;;;;;;;3.20;67.39;93628.19;5082342;28;20034;-71
2021/01/01 06:35:54;;;;;;;21.92;10.85;;;;;;;3.27;67.06;93629.72;5083749;28;20036;-72
2021/01/01 06:38:42;;;;;;;24.40;10.80;;;;;;;3.32;66.79;93641.03;5081123;28;20032;-72
2021/01/01 06:41:31;;;;;;;25.08;11.02;;;;;;;3.20;67.64;93643.22;5075123;28;20021;-72
2021/01/01 06:43:57;;;;;;;25.17;12.02;;;;;;;3.31;68.02;93646.56;5081636;28;20061;-72
2021/01/01 06:46:32;;;;;;;27.92;12.32;;;;;;;3.36;67.80;93644.69;5077188;28;20518;-71
2021/01/01 06:48:57;;;;;;;22.17;11.35;;;;;;;3.48;67.35;93648.81;5080410;28;20028;-71
2021/01/01 06:51:23;;;;;;;26.27;12.38;;;;;;;3.55;67.01;93646.69;5072450;28;20066;-71
2021/01/01 06:53:50;;;;;;;38.58;15.75;;;;;;;3.58;67.02;93646.13;5075406;28;20043;-71
2021/01/01 06:56:18;;;;;;;41.25;17.88;;;;;;;3.68;66.95;93655.81;5071364;28;20129;-70
2021/01/01 06:58:44;;;;;;;49.42;17.35;;;;;;;3.74;66.78;93652.84;5085406;28;20446;-70
2021/01/01 07:01:17;;;;;;;32.70;14.57;;;;;;;3.88;66.21;93660.16;5083568;28;20028;-71
2021/01/01 07:03:43;;;;;;;36.15;12.85;;;;;;;3.96;65.78;93651.66;5079947;28;20027;-72
2021/01/01 07:06:08;;;;;;;29.45;12.15;;;;;;;4.05;65.42;93651.84;5076824;28;20032;-73
2021/01/01 07:08:42;;;;;;;30.70;12.48;;;;;;;4.12;64.84;93654.94;5078714;28;20024;-72
2021/01/01 07:11:08;;;;;;;25.45;11.50;;;;;;;4.17;64.43;93660.97;5088054;28;20107;-73
2021/01/01 07:13:46;;;;;;;26.00;10.57;;;;;;;4.18;64.67;93665.19;5075555;28;20110;-73
2021/01/01 07:16:13;;;;;;;26.80;12.63;;;;;;;4.23;64.70;93666.97;5103413;28;20066;-73
2021/01/01 07:18:39;;;;;;;29.55;12.80;;;;;;;4.27;64.33;93667.22;5089055;28;20069;-73
2021/01/01 07:21:07;;;;;;;29.95;13.60;;;;;;;4.34;63.92;93671.09;5080317;28;20058;-73
2021/01/01 07:23:46;;;;;;;25.52;11.45;;;;;;;4.41;63.75;93668.91;5080006;28;20047;-73
2021/01/01 07:26:12;;;;;;;35.30;14.25;;;;;;;4.40;63.87;93672.63;5075962;28;20013;-73
2021/01/01 07:28:40;;;;;;;42.95;15.85;;;;;;;4.51;63.75;93681.22;5073097;28;20036;-72
2021/01/01 07:31:06;;;;;;;31.13;14.27;;;;;;;4.46;64.51;93664.66;5102445;28;20016;-72
2021/01/01 07:33:32;;;;;;;26.67;12.38;;;;;;;4.51;64.68;93680.44;5083349;28;20035;-72
2021/01/01 07:36:06;;;;;;;29.20;13.77;;;;;;;4.50;64.95;93678.88;5073446;28;20062;-72
2021/01/01 07:38:34;;;;;;;30.15;13.48;;;;;;;4.56;65.01;93678.56;5076598;28;20028;-74
2021/01/01 07:40:59;;;;;;;39.35;13.30;;;;;;;4.59;64.71;93685.13;5080883;28;20061;-73
2021/01/01 07:43:26;;;;;;;31.88;13.10;;;;;;;4.59;64.77;93683.25;5074936;28;20131;-73
2021/01/01 07:45:59;;;;;;;29.33;12.55;;;;;;;4.69;65.00;93689.53;5072813;28;20450;-72
2021/01/01 07:48:25;;;;;;;33.42;13.75;;;;;;;4.75;64.81;93689.19;5083985;28;20057;-72
2021/01/01 07:50:51;;;;;;;29.10;12.50;;;;;;;4.82;64.76;93688.84;5072911;28;20404;-72
2021/01/01 07:53:17;;;;;;;27.95;12.82;;;;;;;4.90;64.41;93690.84;5076305;28;20052;-72
2021/01/01 07:55:42;;;;;;;29.60;13.77;;;;;;;4.96;64.00;93700.31;5073212;28;20017;-71
2021/01/01 07:58:11;;;;;;;22.80;10.65;;;;;;;4.98;64.24;93697.38;5081161;28;20104;-63
2021/01/01 08:00:39;;;;;;;31.63;10.07;;;;;;;4.97;63.81;93701.88;5085173;28;20024;-64
2021/01/01 08:03:06;;;;;;;23.00;11.38;;;;;;;4.85;63.89;93717.34;5088590;28;20016;-64
2021/01/01 08:05:32;;;;;;;29.48;10.50;;;;;;;4.95;63.44;93716.44;5077274;28;20021;-63
2021/01/01 08:08:15;;;;;;;25.85;10.23;;;;;;;4.98;63.48;93714.00;5092473;28;20024;-64
2021/01/01 08:10:42;;;;;;;22.02;11.30;;;;;;;5.00;63.45;93717.16;5086700;28;20028;-64
2021/01/01 08:13:16;;;;;;;30.00;12.05;;;;;;;5.03;64.43;93710.56;5078175;28;20388;-64
2021/01/01 08:15:42;;;;;;;25.30;11.25;;;;;;;5.08;64.36;93722.91;5081662;28;20031;-64
2021/01/01 08:18:08;;;;;;;23.95;11.25;;;;;;;5.16;63.28;93724.94;5077696;28;20036;-64
2021/01/01 08:20:34;;;;;;;33.72;12.10;;;;;;;5.23;62.59;93734.09;5079950;28;20024;-65
2021/01/01 08:23:04;;;;;;;24.90;11.48;;;;;;;5.30;62.78;93733.75;5079232;28;20030;-64
2021/01/01 08:25:29;;;;;;;29.55;12.13;;;;;;;5.30;62.59;93723.16;5085756;28;20025;-65
2021/01/01 08:27:55;;;;;;;26.55;11.82;;;;;;;5.38;61.79;93721.75;5080286;28;20032;-65
2021/01/01 08:30:22;;;;;;;22.58;10.85;;;;;;;5.42;62.36;93728.84;5085170;28;20483;-65
2021/01/01 08:32:48;;;;;;;24.65;11.93;;;;;;;5.52;62.21;93732.44;5081881;28;20069;-65
2021/01/01 08:35:14;;;;;;;26.63;11.68;;;;;;;5.59;61.78;93722.28;5079072;28;20032;-66
2021/01/01 08:37:39;;;;;;;27.50;11.50;;;;;;;5.69;61.69;93727.44;5083375;28;20024;-65
2021/01/01 08:40:06;;;;;;;24.08;11.52;;;;;;;5.78;61.64;93736.31;5076406;28;20042;-65
2021/01/01 08:42:41;;;;;;;22.92;10.68;;;;;;;5.87;61.53;93733.03;5087662;28;20028;-65
2021/01/01 08:45:09;;;;;;;26.65;10.65;;;;;;;5.90;61.22;93738.50;5080912;28;20028;-65
2021/01/01 08:47:42;;;;;;;28.65;12.15;;;;;;;5.99;61.06;93744.78;5083605;28;20128;-65
2021/01/01 08:50:28;;;;;;;27.23;12.65;;;;;;;6.04;60.76;93741.25;5084777;28;20426;-66
2021/01/01 08:52:58;;;;;;;24.75;10.73;;;;;;;6.15;59.99;93744.56;5085797;28;20161;-65
2021/01/01 08:55:23;;;;;;;24.73;10.45;;;;;;;6.21;59.54;93738.91;5082874;28;20094;-65
2021/01/01 08:57:49;;;;;;;25.05;9.60;;;;;;;6.31;58.34;93742.44;5083069;28;20028;-65
2021/01/01 09:00:15;;;;;;;22.17;8.35;;;;;;;6.42;57.72;93736.72;5081090;28;20079;-66
2021/01/01 09:02:41;;;;;;;22.45;8.25;;;;;;;6.45;56.76;93732.69;5082793;28;20487;-65
2021/01/01 09:05:11;;;;;;;24.80;9.55;;;;;;;6.50;57.08;93729.19;5076666;28;20016;-65
2021/01/01 09:07:37;;;;;;;22.73;10.25;;;;;;;6.52;57.87;93733.13;5079469;28;20092;-65
2021/01/01 09:10:16;;;;;;;30.98;10.85;;;;;;;6.59;58.25;93732.72;5080271;28;20024;-65
2021/01/01 09:12:42;;;;;;;24.67;10.35;;;;;;;6.65;58.28;93741.38;5092771;28;20027;-65
2021/01/01 09:15:08;;;;;;;28.95;10.55;;;;;;;6.76;58.25;93742.78;5080179;28;20027;-66
2021/01/01 09:17:33;;;;;;;24.20;10.27;;;;;;;6.86;57.73;93741.81;5090019;28;20059;-66
2021/01/01 09:20:07;;;;;;;23.33;11.95;;;;;;;6.99;56.75;93743.72;5083065;28;20402;-65
2021/01/01 09:22:37;;;;;;;25.48;9.88;;;;;;;7.08;56.14;93747.25;5081168;28;20548;-65
2021/01/01 09:25:23;;;;;;;23.38;9.88;;;;;;;7.15;55.16;93744.22;5083959;28;20035;-65
2021/01/01 09:27:50;;;;;;;20.67;10.20;;;;;;;7.25;54.63;93733.41;5080762;28;20012;-65
2021/01/01 09:30:17;;;;;;;23.85;10.15;;;;;;;7.30;53.97;93743.91;5087804;28;20035;-66
2021/01/01 09:32:48;;;;;;;21.63;10.52;;;;;;;7.41;53.88;93747.94;5091555;28;20550;-66
2021/01/01 09:35:14;;;;;;;23.58;9.85;;;;;;;7.52;53.80;93742.44;5084412;28;20073;-66
2021/01/01 09:37:46;;;;;;;24.40;12.13;;;;;;;7.65;54.57;93752.25;5085450;28;20039;-65
2021/01/01 09:40:14;;;;;;;30.65;13.77;;;;;;;7.72;55.40;93749.97;5076887;28;20046;-65
2021/01/01 09:42:40;;;;;;;30.90;12.57;;;;;;;7.80;54.67;93749.28;5091667;28;20028;-65
2021/01/01 09:45:06;;;;;;;24.33;11.82;;;;;;;7.87;54.60;93740.91;5086698;28;20031;-65
2021/01/01 09:47:31;;;;;;;34.15;14.48;;;;;;;7.94;54.87;93754.56;5092036;28;20388;-66
2021/01/01 09:49:57;;;;;;;27.90;14.50;;;;;;;7.96;54.41;93735.69;5087369;28;20060;-65
2021/01/01 09:52:22;;;;;;;41.42;13.75;;;;;;;7.91;54.71;93738.44;5087942;28;20120;-65
2021/01/01 09:54:47;;;;;;;28.33;13.48;;;;;;;7.97;54.64;93738.03;5086425;28;20028;-65
2021/01/01 09:57:29;;;;;;;30.80;14.40;;;;;;;8.11;54.38;93743.31;5078640;28;20539;-65
2021/01/01 09:59:55;;;;;;;29.60;12.80;;;;;;;8.21;54.37;93737.75;5080895;28;20023;-63
2021/01/01 10:02:21;;;;;;;31.13;12.82;;;;;;;8.32;53.52;93742.84;5075336;28;20507;-64
2021/01/01 10:04:46;;;;;;;25.48;11.95;;;;;;;8.40;53.26;93732.28;5072045;28;20055;-64
2021/01/01 10:07:12;;;;;;;24.80;11.80;;;;;;;8.50;52.60;93736.59;5085978;28;20012;-64
2021/01/01 10:09:37;;;;;;;32.50;12.77;;;;;;;8.59;52.48;93729.47;5084775;28;20027;-65
2021/01/01 10:12:05;;;;;;;24.48;12.02;;;;;;;8.68;52.06;93734.06;5079975;28;20055;-65
2021/01/01 10:14:31;;;;;;;25.05;11.80;;;;;;;8.76;51.75;93731.44;5076815;28;20457;-65
2021/01/01 10:16:57;;;;;;;27.30;12.00;;;;;;;8.75;50.31;93729.09;5084707;28;20024;-65
2021/01/01 10:19:22;;;;;;;21.98;11.15;;;;;;;8.74;50.60;93736.28;5087578;28;20503;-65
2021/01/01 10:21:47;;;;;;;23.30;10.38;;;;;;;8.68;49.48;93718.91;5077837;28;20029;-66
2021/01/01 10:24:13;;;;;;;18.20;9.43;;;;;;;8.61;49.76;93729.97;5083212;28;20032;-66
2021/01/01 10:26:38;;;;;;;17.05;8.13;;;;;;;8.74;48.26;93722.22;5088210;28;20429;-65
2021/01/01 10:29:04;;;;;;;18.30;8.52;;;;;;;8.74;48.67;93715.03;5078455;28;20085;-65
2021/01/01 10:31:29;;;;;;;16.60;8.55;;;;;;;8.74;49.28;93716.91;5086933;28;20055;-66
2021/01/01 10:33:54;;;;;;;17.23;8.10;;;;;;;8.88;48.33;93720.25;5074102;28;20085;-66
2021/01/01 10:36:20;;;;;;;20.48;7.45;;;;;;;8.98;48.07;93711.25;5078292;28;20097;-66
2021/01/01 10:38:45;;;;;;;24.13;7.53;;;;;;;9.09;48.18;93701.13;5080979;28;20039;-66
2021/01/01 10:41:12;;;;;;;17.80;6.43;;;;;;;9.19;48.22;93708.81;5085111;28;20476;-66
2021/01/01 10:43:37;;;;;;;15.65;6.68;;;;;;;9.29;47.61;93708.53;5080947;28;20407;-66
2021/01/01 10:46:03;;;;;;;11.45;5.95;;;;;;;9.40;46.95;93709.84;5080009;28;20030;-66
2021/01/01 10:48:28;;;;;;;15.77;6.85;;;;;;;9.39;46.85;93702.94;5078460;28;20446;-66
2021/01/01 10:50:53;;;;;;;14.15;6.78;;;;;;;9.47;47.66;93695.31;5079014;28;20055;-65
2021/01/01 10:53:19;;;;;;;12.23;6.35;;;;;;;9.58;47.73;93701.88;5081313;28;20155;-66
2021/01/01 10:55:45;;;;;;;13.68;5.90;;;;;;;9.68;47.07;93688.28;5081462;28;20501;-65
2021/01/01 10:58:11;;;;;;;15.00;6.80;;;;;;;9.80;47.08;93691.13;5080147;28;20023;-65
2021/01/01 11:00:36;;;;;;;12.25;5.57;;;;;;;9.84;46.75;93678.75;5085816;28;20440;-65
2021/01/01 11:03:01;;;;;;;11.52;5.43;;;;;;;9.87;46.26;93688.00;5074158;28;20518;-65
2021/01/01 11:05:27;;;;;;;12.88;5.30;;;;;;;9.97;46.29;93682.38;5079433;28;20436;-66
2021/01/01 11:07:52;;;;;;;12.70;5.10;;;;;;;10.09;45.57;93678.28;5078804;28;20537;-66
2021/01/01 11:10:18;;;;;;;10.98;5.63;;;;;;;10.18;45.16;93676.41;5080953;28;20035;-66
2021/01/01 11:12:44;;;;;;;9.48;4.85;;;;;;;10.21;44.87;93684.53;5102479;28;20052;-66
2021/01/01 12:26:28;;;;;;;10.13;4.80;;;;;;;12.23;39.05;93682.63;5082068;28;20024;-67
2021/01/01 12:28:54;;;;;;;12.15;4.70;;;;;;;12.31;38.40;93687.09;5077725;28;20376;-67
2021/01/01 12:31:20;;;;;;;10.65;4.53;;;;;;;12.41;37.63;93683.25;5079458;28;20032;-67
2021/01/01 12:33:46;;;;;;;11.35;3.63;;;;;;;12.47;37.71;93691.84;5088044;28;20042;-67
2021/01/01 12:36:11;;;;;;;6.47;3.30;;;;;;;12.55;37.72;93691.78;5086406;28;20032;-67
2021/01/01 12:38:36;;;;;;;10.75;3.47;;;;;;;12.66;35.49;93702.84;5073606;28;20448;-67
2021/01/01 12:41:03;;;;;;;5.82;2.95;;;;;;;12.73;34.69;93699.63;5074887;28;20092;-67
2021/01/01 12:43:28;;;;;;;7.25;2.97;;;;;;;12.76;35.21;93701.63;5087633;28;20027;-67